sensor_id;sensor_type;location;lat;lon;timestamp;P1;durP1;ratioP1;P2;durP2;ratioP2
11797;SDS011;5956;51.428;6.682;2023-03-03T00:02:11;61.47;;;42.00;;
11797;SDS011;5956;51.428;6.682;2023-03-03T00:04:39;62.90;;;42.43;;
11797;SDS011;5956;51.428;6.682;2023-03-03T00:07:06;63.27;;;45.10;;
11797;SDS011;5956;51.428;6.682;2023-03-03T00:09:32;62.67;;;41.87;;
11797;SDS011;5956;51.428;6.682;2023-03-03T00:11:59;63.37;;;41.97;;
11797;SDS011;5956;51.428;6.682;2023-03-03T00:14:27;67.20;;;42.93;;
11797;SDS011;5956;51.428;6.682;2023-03-03T00:16:54;66.17;;;42.63;;
11797;SDS011;5956;51.428;6.682;2023-03-03T00:19:21;75.53;;;45.77;;
11797;SDS011;5956;51.428;6.682;2023-03-03T00:21:50;71.07;;;43.00;;
11797;SDS011;5956;51.428;6.682;2023-03-03T00:24:18;61.70;;;41.30;;
11797;SDS011;5956;51.428;6.682;2023-03-03T00:26:45;61.70;;;39.43;;
11797;SDS011;5956;51.428;6.682;2023-03-03T00:31:55;54.40;;;36.87;;
11797;SDS011;5956;51.428;6.682;2023-03-03T00:34:26;54.33;;;36.53;;
11797;SDS011;5956;51.428;6.682;2023-03-03T00:36:56;56.63;;;36.80;;
11797;SDS011;5956;51.428;6.682;2023-03-03T00:39:25;50.93;;;35.50;;
11797;SDS011;5956;51.428;6.682;2023-03-03T00:41:54;46.57;;;33.87;;
11797;SDS011;5956;51.428;6.682;2023-03-03T00:47:11;49.10;;;34.53;;
11797;SDS011;5956;51.428;6.682;2023-03-03T00:49:38;49.83;;;34.03;;
11797;SDS011;5956;51.428;6.682;2023-03-03T00:52:10;44.87;;;31.97;;
11797;SDS011;5956;51.428;6.682;2023-03-03T00:54:39;47.33;;;32.03;;
11797;SDS011;5956;51.428;6.682;2023-03-03T00:57:06;43.53;;;31.97;;
11797;SDS011;5956;51.428;6.682;2023-03-03T00:59:32;42.57;;;30.90;;
11797;SDS011;5956;51.428;6.682;2023-03-03T01:01:59;41.43;;;30.17;;
11797;SDS011;5956;51.428;6.682;2023-03-03T01:04:25;43.67;;;31.50;;
11797;SDS011;5956;51.428;6.682;2023-03-03T01:06:52;42.93;;;31.07;;
11797;SDS011;5956;51.428;6.682;2023-03-03T01:09:20;39.03;;;28.67;;
11797;SDS011;5956;51.428;6.682;2023-03-03T01:11:47;38.17;;;29.17;;
11797;SDS011;5956;51.428;6.682;2023-03-03T01:14:13;39.70;;;29.13;;
11797;SDS011;5956;51.428;6.682;2023-03-03T01:16:40;38.23;;;28.23;;
11797;SDS011;5956;51.428;6.682;2023-03-03T01:19:06;41.37;;;28.87;;
11797;SDS011;5956;51.428;6.682;2023-03-03T01:21:33;42.30;;;29.83;;
11797;SDS011;5956;51.428;6.682;2023-03-03T01:24:00;39.67;;;28.03;;
11797;SDS011;5956;51.428;6.682;2023-03-03T01:26:27;39.60;;;28.40;;
11797;SDS011;5956;51.428;6.682;2023-03-03T01:28:55;39.50;;;28.50;;
11797;SDS011;5956;51.428;6.682;2023-03-03T01:31:22;36.27;;;27.53;;
11797;SDS011;5956;51.428;6.682;2023-03-03T01:33:48;41.87;;;28.90;;
11797;SDS011;5956;51.428;6.682;2023-03-03T01:36:15;39.13;;;28.90;;
11797;SDS011;5956;51.428;6.682;2023-03-03T01:38:41;40.57;;;29.90;;
11797;SDS011;5956;51.428;6.682;2023-03-03T01:41:08;43.20;;;31.13;;
11797;SDS011;5956;51.428;6.682;2023-03-03T01:43:41;48.57;;;33.50;;
11797;SDS011;5956;51.428;6.682;2023-03-03T01:53:43;49.20;;;34.13;;
11797;SDS011;5956;51.428;6.682;2023-03-03T01:56:10;54.00;;;37.33;;
11797;SDS011;5956;51.428;6.682;2023-03-03T01:58:39;61.23;;;42.73;;
11797;SDS011;5956;51.428;6.682;2023-03-03T02:01:08;53.47;;;38.60;;
11797;SDS011;5956;51.428;6.682;2023-03-03T02:03:37;54.00;;;38.80;;
11797;SDS011;5956;51.428;6.682;2023-03-03T02:06:05;53.17;;;35.80;;
11797;SDS011;5956;51.428;6.682;2023-03-03T02:08:37;58.03;;;38.03;;
11797;SDS011;5956;51.428;6.682;2023-03-03T02:11:04;55.47;;;37.53;;
11797;SDS011;5956;51.428;6.682;2023-03-03T02:13:32;59.07;;;39.47;;
11797;SDS011;5956;51.428;6.682;2023-03-03T02:15:59;57.17;;;37.73;;
11797;SDS011;5956;51.428;6.682;2023-03-03T02:18:26;62.40;;;39.97;;
11797;SDS011;5956;51.428;6.682;2023-03-03T02:20:55;53.90;;;36.00;;
11797;SDS011;5956;51.428;6.682;2023-03-03T02:23:24;50.23;;;34.90;;
11797;SDS011;5956;51.428;6.682;2023-03-03T02:26:00;50.00;;;34.53;;
11797;SDS011;5956;51.428;6.682;2023-03-03T02:28:29;45.93;;;33.77;;
11797;SDS011;5956;51.428;6.682;2023-03-03T02:30:56;47.87;;;33.33;;
11797;SDS011;5956;51.428;6.682;2023-03-03T02:33:23;45.77;;;33.10;;
11797;SDS011;5956;51.428;6.682;2023-03-03T02:35:50;46.33;;;32.73;;
11797;SDS011;5956;51.428;6.682;2023-03-03T02:38:19;43.97;;;32.00;;
11797;SDS011;5956;51.428;6.682;2023-03-03T02:40:48;48.10;;;32.10;;
11797;SDS011;5956;51.428;6.682;2023-03-03T02:43:18;49.90;;;35.10;;
11797;SDS011;5956;51.428;6.682;2023-03-03T02:45:46;57.70;;;39.73;;
11797;SDS011;5956;51.428;6.682;2023-03-03T02:48:13;62.20;;;41.00;;
11797;SDS011;5956;51.428;6.682;2023-03-03T02:50:39;57.37;;;37.77;;
11797;SDS011;5956;51.428;6.682;2023-03-03T02:53:06;57.50;;;37.50;;
11797;SDS011;5956;51.428;6.682;2023-03-03T02:55:32;51.60;;;37.37;;
11797;SDS011;5956;51.428;6.682;2023-03-03T02:57:59;57.87;;;37.67;;
11797;SDS011;5956;51.428;6.682;2023-03-03T03:00:27;58.70;;;40.47;;
11797;SDS011;5956;51.428;6.682;2023-03-03T03:02:53;58.70;;;38.80;;
11797;SDS011;5956;51.428;6.682;2023-03-03T03:05:20;57.67;;;39.37;;
11797;SDS011;5956;51.428;6.682;2023-03-03T03:07:46;58.77;;;38.50;;
11797;SDS011;5956;51.428;6.682;2023-03-03T03:10:13;59.57;;;39.13;;
11797;SDS011;5956;51.428;6.682;2023-03-03T03:12:40;61.20;;;38.57;;
11797;SDS011;5956;51.428;6.682;2023-03-03T03:15:06;57.50;;;38.50;;
11797;SDS011;5956;51.428;6.682;2023-03-03T03:17:37;60.93;;;38.70;;
11797;SDS011;5956;51.428;6.682;2023-03-03T03:20:04;72.17;;;44.80;;
11797;SDS011;5956;51.428;6.682;2023-03-03T03:22:30;65.10;;;43.20;;
11797;SDS011;5956;51.428;6.682;2023-03-03T03:24:57;60.77;;;38.80;;
11797;SDS011;5956;51.428;6.682;2023-03-03T03:27:23;61.40;;;40.30;;
11797;SDS011;5956;51.428;6.682;2023-03-03T03:29:50;56.33;;;37.43;;
11797;SDS011;5956;51.428;6.682;2023-03-03T03:32:16;58.87;;;37.43;;
11797;SDS011;5956;51.428;6.682;2023-03-03T03:34:44;58.77;;;36.40;;
11797;SDS011;5956;51.428;6.682;2023-03-03T03:37:11;68.00;;;41.07;;
11797;SDS011;5956;51.428;6.682;2023-03-03T03:39:37;55.50;;;34.57;;
11797;SDS011;5956;51.428;6.682;2023-03-03T03:42:04;60.47;;;37.57;;
11797;SDS011;5956;51.428;6.682;2023-03-03T03:44:31;64.70;;;40.03;;
11797;SDS011;5956;51.428;6.682;2023-03-03T03:46:57;58.53;;;36.63;;
11797;SDS011;5956;51.428;6.682;2023-03-03T03:49:24;67.13;;;37.90;;
11797;SDS011;5956;51.428;6.682;2023-03-03T03:51:52;64.00;;;39.33;;
11797;SDS011;5956;51.428;6.682;2023-03-03T03:54:18;60.67;;;36.77;;
11797;SDS011;5956;51.428;6.682;2023-03-03T03:56:45;55.60;;;33.87;;
11797;SDS011;5956;51.428;6.682;2023-03-03T03:59:11;58.30;;;34.63;;
11797;SDS011;5956;51.428;6.682;2023-03-03T04:01:38;56.27;;;34.60;;
11797;SDS011;5956;51.428;6.682;2023-03-03T04:04:04;52.50;;;33.87;;
11797;SDS011;5956;51.428;6.682;2023-03-03T04:06:31;55.37;;;33.97;;
11797;SDS011;5956;51.428;6.682;2023-03-03T04:08:59;55.17;;;34.00;;
11797;SDS011;5956;51.428;6.682;2023-03-03T04:11:25;60.73;;;36.83;;
11797;SDS011;5956;51.428;6.682;2023-03-03T04:13:52;54.80;;;35.20;;
11797;SDS011;5956;51.428;6.682;2023-03-03T04:16:18;59.73;;;36.50;;
11797;SDS011;5956;51.428;6.682;2023-03-03T04:18:45;54.57;;;35.23;;
11797;SDS011;5956;51.428;6.682;2023-03-03T04:21:11;57.37;;;35.53;;
11797;SDS011;5956;51.428;6.682;2023-03-03T04:23:38;59.33;;;37.10;;
11797;SDS011;5956;51.428;6.682;2023-03-03T04:26:07;53.07;;;34.13;;
11797;SDS011;5956;51.428;6.682;2023-03-03T04:28:34;48.47;;;30.97;;
11797;SDS011;5956;51.428;6.682;2023-03-03T04:31:01;44.27;;;29.20;;
11797;SDS011;5956;51.428;6.682;2023-03-03T04:33:28;46.03;;;29.03;;
11797;SDS011;5956;51.428;6.682;2023-03-03T04:35:55;42.60;;;27.03;;
11797;SDS011;5956;51.428;6.682;2023-03-03T04:38:21;40.80;;;27.23;;
11797;SDS011;5956;51.428;6.682;2023-03-03T04:40:48;42.20;;;28.03;;
11797;SDS011;5956;51.428;6.682;2023-03-03T04:43:15;44.97;;;27.90;;
11797;SDS011;5956;51.428;6.682;2023-03-03T04:45:42;43.30;;;28.70;;
11797;SDS011;5956;51.428;6.682;2023-03-03T04:48:09;39.00;;;25.97;;
11797;SDS011;5956;51.428;6.682;2023-03-03T04:50:35;39.93;;;25.83;;
11797;SDS011;5956;51.428;6.682;2023-03-03T04:53:02;43.70;;;27.13;;
11797;SDS011;5956;51.428;6.682;2023-03-03T04:55:28;43.43;;;27.93;;
11797;SDS011;5956;51.428;6.682;2023-03-03T04:57:55;45.73;;;30.17;;
11797;SDS011;5956;51.428;6.682;2023-03-03T05:00:23;51.50;;;29.57;;
11797;SDS011;5956;51.428;6.682;2023-03-03T05:02:49;47.03;;;27.97;;
11797;SDS011;5956;51.428;6.682;2023-03-03T05:05:16;49.83;;;31.13;;
11797;SDS011;5956;51.428;6.682;2023-03-03T05:07:43;52.97;;;32.13;;
11797;SDS011;5956;51.428;6.682;2023-03-03T05:10:10;55.00;;;34.03;;
11797;SDS011;5956;51.428;6.682;2023-03-03T05:12:36;66.07;;;37.37;;
11797;SDS011;5956;51.428;6.682;2023-03-03T05:15:03;70.13;;;38.73;;
11797;SDS011;5956;51.428;6.682;2023-03-03T05:17:31;61.93;;;36.70;;
11797;SDS011;5956;51.428;6.682;2023-03-03T05:19:57;54.20;;;34.73;;
11797;SDS011;5956;51.428;6.682;2023-03-03T05:22:24;55.83;;;32.87;;
11797;SDS011;5956;51.428;6.682;2023-03-03T05:24:51;52.47;;;31.73;;
11797;SDS011;5956;51.428;6.682;2023-03-03T05:27:18;60.87;;;34.47;;
11797;SDS011;5956;51.428;6.682;2023-03-03T05:29:45;57.77;;;34.33;;
11797;SDS011;5956;51.428;6.682;2023-03-03T05:32:11;60.03;;;35.03;;
11797;SDS011;5956;51.428;6.682;2023-03-03T05:34:39;63.70;;;34.80;;
11797;SDS011;5956;51.428;6.682;2023-03-03T05:37:06;61.63;;;36.10;;
11797;SDS011;5956;51.428;6.682;2023-03-03T05:39:33;62.50;;;36.40;;
11797;SDS011;5956;51.428;6.682;2023-03-03T05:41:59;66.43;;;38.13;;
11797;SDS011;5956;51.428;6.682;2023-03-03T05:44:26;66.30;;;39.73;;
11797;SDS011;5956;51.428;6.682;2023-03-03T05:46:53;61.97;;;35.80;;
11797;SDS011;5956;51.428;6.682;2023-03-03T05:49:20;65.73;;;38.13;;
11797;SDS011;5956;51.428;6.682;2023-03-03T05:51:48;62.90;;;37.60;;
11797;SDS011;5956;51.428;6.682;2023-03-03T05:54:15;57.37;;;35.33;;
11797;SDS011;5956;51.428;6.682;2023-03-03T05:56:41;60.13;;;35.87;;
11797;SDS011;5956;51.428;6.682;2023-03-03T05:59:08;60.10;;;37.23;;
11797;SDS011;5956;51.428;6.682;2023-03-03T06:01:34;65.23;;;36.37;;
11797;SDS011;5956;51.428;6.682;2023-03-03T06:04:01;65.00;;;40.73;;
11797;SDS011;5956;51.428;6.682;2023-03-03T06:06:27;66.33;;;40.67;;
11797;SDS011;5956;51.428;6.682;2023-03-03T06:08:55;62.90;;;38.03;;
11797;SDS011;5956;51.428;6.682;2023-03-03T06:11:22;67.07;;;38.83;;
11797;SDS011;5956;51.428;6.682;2023-03-03T06:13:48;71.77;;;44.57;;
11797;SDS011;5956;51.428;6.682;2023-03-03T06:16:15;69.90;;;42.43;;
11797;SDS011;5956;51.428;6.682;2023-03-03T06:18:42;70.20;;;41.57;;
11797;SDS011;5956;51.428;6.682;2023-03-03T06:21:08;67.97;;;39.33;;
11797;SDS011;5956;51.428;6.682;2023-03-03T06:23:35;70.57;;;43.70;;
11797;SDS011;5956;51.428;6.682;2023-03-03T06:26:03;65.43;;;40.50;;
11797;SDS011;5956;51.428;6.682;2023-03-03T06:28:29;71.27;;;41.97;;
11797;SDS011;5956;51.428;6.682;2023-03-03T06:30:56;77.70;;;44.27;;
11797;SDS011;5956;51.428;6.682;2023-03-03T06:33:22;68.17;;;39.90;;
11797;SDS011;5956;51.428;6.682;2023-03-03T06:35:49;73.43;;;44.40;;
11797;SDS011;5956;51.428;6.682;2023-03-03T06:38:16;74.80;;;45.13;;
11797;SDS011;5956;51.428;6.682;2023-03-03T06:40:43;62.87;;;36.97;;
11797;SDS011;5956;51.428;6.682;2023-03-03T06:43:11;74.03;;;46.60;;
11797;SDS011;5956;51.428;6.682;2023-03-03T06:45:38;63.43;;;39.20;;
11797;SDS011;5956;51.428;6.682;2023-03-03T06:48:05;65.33;;;40.03;;
11797;SDS011;5956;51.428;6.682;2023-03-03T06:50:31;58.53;;;37.50;;
11797;SDS011;5956;51.428;6.682;2023-03-03T06:52:59;63.23;;;38.20;;
11797;SDS011;5956;51.428;6.682;2023-03-03T06:55:27;65.47;;;38.87;;
11797;SDS011;5956;51.428;6.682;2023-03-03T06:57:53;60.83;;;38.40;;
11797;SDS011;5956;51.428;6.682;2023-03-03T07:00:22;61.77;;;38.80;;
11797;SDS011;5956;51.428;6.682;2023-03-03T07:02:50;65.27;;;39.67;;
11797;SDS011;5956;51.428;6.682;2023-03-03T07:05:18;67.43;;;40.87;;
11797;SDS011;5956;51.428;6.682;2023-03-03T07:07:45;64.13;;;38.30;;
11797;SDS011;5956;51.428;6.682;2023-03-03T07:10:15;60.63;;;38.53;;
11797;SDS011;5956;51.428;6.682;2023-03-03T07:12:43;64.13;;;39.87;;
11797;SDS011;5956;51.428;6.682;2023-03-03T07:15:12;69.33;;;40.27;;
11797;SDS011;5956;51.428;6.682;2023-03-03T07:17:43;64.97;;;38.73;;
11797;SDS011;5956;51.428;6.682;2023-03-03T07:20:11;69.80;;;40.67;;
11797;SDS011;5956;51.428;6.682;2023-03-03T07:22:40;65.17;;;38.87;;
11797;SDS011;5956;51.428;6.682;2023-03-03T07:25:08;65.03;;;38.90;;
11797;SDS011;5956;51.428;6.682;2023-03-03T07:27:44;63.33;;;38.50;;
11797;SDS011;5956;51.428;6.682;2023-03-03T07:30:16;65.17;;;37.90;;
11797;SDS011;5956;51.428;6.682;2023-03-03T07:32:45;61.80;;;36.70;;
11797;SDS011;5956;51.428;6.682;2023-03-03T07:35:21;64.17;;;38.47;;
11797;SDS011;5956;51.428;6.682;2023-03-03T07:37:49;65.70;;;37.27;;
11797;SDS011;5956;51.428;6.682;2023-03-03T07:40:27;68.20;;;40.63;;
11797;SDS011;5956;51.428;6.682;2023-03-03T07:42:54;68.30;;;39.90;;
11797;SDS011;5956;51.428;6.682;2023-03-03T07:45:22;70.53;;;39.80;;
11797;SDS011;5956;51.428;6.682;2023-03-03T07:47:51;63.03;;;39.53;;
11797;SDS011;5956;51.428;6.682;2023-03-03T07:50:19;72.07;;;42.57;;
11797;SDS011;5956;51.428;6.682;2023-03-03T07:52:49;66.37;;;40.77;;
11797;SDS011;5956;51.428;6.682;2023-03-03T07:55:24;66.47;;;40.97;;
11797;SDS011;5956;51.428;6.682;2023-03-03T07:57:52;71.40;;;44.10;;
11797;SDS011;5956;51.428;6.682;2023-03-03T08:07:57;73.33;;;42.00;;
11797;SDS011;5956;51.428;6.682;2023-03-03T08:10:30;68.57;;;39.80;;
11797;SDS011;5956;51.428;6.682;2023-03-03T08:13:00;72.53;;;41.40;;
11797;SDS011;5956;51.428;6.682;2023-03-03T08:15:30;73.63;;;41.93;;
11797;SDS011;5956;51.428;6.682;2023-03-03T08:17:57;63.00;;;37.57;;
11797;SDS011;5956;51.428;6.682;2023-03-03T08:23:09;70.30;;;39.20;;
11797;SDS011;5956;51.428;6.682;2023-03-03T08:25:36;72.00;;;42.57;;
11797;SDS011;5956;51.428;6.682;2023-03-03T08:28:02;80.57;;;42.03;;
11797;SDS011;5956;51.428;6.682;2023-03-03T08:30:29;66.70;;;38.83;;
11797;SDS011;5956;51.428;6.682;2023-03-03T08:32:56;68.03;;;40.93;;
11797;SDS011;5956;51.428;6.682;2023-03-03T08:35:22;72.10;;;41.73;;
11797;SDS011;5956;51.428;6.682;2023-03-03T08:37:49;67.37;;;41.20;;
11797;SDS011;5956;51.428;6.682;2023-03-03T08:40:17;70.10;;;41.43;;
11797;SDS011;5956;51.428;6.682;2023-03-03T08:42:43;66.10;;;39.53;;
11797;SDS011;5956;51.428;6.682;2023-03-03T08:45:10;70.93;;;39.87;;
11797;SDS011;5956;51.428;6.682;2023-03-03T08:47:37;71.97;;;40.17;;
11797;SDS011;5956;51.428;6.682;2023-03-03T08:50:03;77.63;;;45.17;;
11797;SDS011;5956;51.428;6.682;2023-03-03T08:52:30;72.97;;;44.27;;
11797;SDS011;5956;51.428;6.682;2023-03-03T08:54:58;70.97;;;39.93;;
11797;SDS011;5956;51.428;6.682;2023-03-03T08:57:26;62.93;;;37.83;;
11797;SDS011;5956;51.428;6.682;2023-03-03T08:59:52;69.17;;;38.57;;
11797;SDS011;5956;51.428;6.682;2023-03-03T09:02:19;69.13;;;38.60;;
11797;SDS011;5956;51.428;6.682;2023-03-03T09:04:45;61.83;;;36.67;;
11797;SDS011;5956;51.428;6.682;2023-03-03T09:07:12;53.97;;;31.20;;
11797;SDS011;5956;51.428;6.682;2023-03-03T09:09:38;51.47;;;30.60;;
11797;SDS011;5956;51.428;6.682;2023-03-03T09:12:08;49.27;;;29.63;;
11797;SDS011;5956;51.428;6.682;2023-03-03T09:14:39;44.87;;;26.27;;
11797;SDS011;5956;51.428;6.682;2023-03-03T09:17:07;49.43;;;28.67;;
11797;SDS011;5956;51.428;6.682;2023-03-03T09:19:44;55.40;;;29.00;;
11797;SDS011;5956;51.428;6.682;2023-03-03T09:22:17;54.20;;;30.93;;
11797;SDS011;5956;51.428;6.682;2023-03-03T09:24:44;55.43;;;33.63;;
11797;SDS011;5956;51.428;6.682;2023-03-03T09:27:12;58.90;;;33.53;;
11797;SDS011;5956;51.428;6.682;2023-03-03T09:29:41;58.93;;;32.60;;
11797;SDS011;5956;51.428;6.682;2023-03-03T09:32:12;55.73;;;30.77;;
11797;SDS011;5956;51.428;6.682;2023-03-03T09:34:42;68.67;;;39.50;;
11797;SDS011;5956;51.428;6.682;2023-03-03T09:37:14;66.70;;;39.93;;
11797;SDS011;5956;51.428;6.682;2023-03-03T09:39:40;55.33;;;32.70;;
11797;SDS011;5956;51.428;6.682;2023-03-03T09:42:18;52.97;;;27.93;;
11797;SDS011;5956;51.428;6.682;2023-03-03T09:44:52;57.93;;;36.07;;
11797;SDS011;5956;51.428;6.682;2023-03-03T09:47:26;57.17;;;31.63;;
11797;SDS011;5956;51.428;6.682;2023-03-03T09:49:56;46.60;;;30.00;;
11797;SDS011;5956;51.428;6.682;2023-03-03T09:52:32;52.10;;;30.23;;
11797;SDS011;5956;51.428;6.682;2023-03-03T09:55:03;45.00;;;27.63;;
11797;SDS011;5956;51.428;6.682;2023-03-03T09:57:35;47.17;;;28.23;;
11797;SDS011;5956;51.428;6.682;2023-03-03T10:00:13;43.87;;;27.70;;
11797;SDS011;5956;51.428;6.682;2023-03-03T10:02:45;55.67;;;32.33;;
11797;SDS011;5956;51.428;6.682;2023-03-03T10:05:15;59.57;;;33.13;;
11797;SDS011;5956;51.428;6.682;2023-03-03T10:07:47;49.73;;;29.20;;
11797;SDS011;5956;51.428;6.682;2023-03-03T10:10:21;50.47;;;30.13;;
11797;SDS011;5956;51.428;6.682;2023-03-03T10:12:53;50.73;;;29.23;;
11797;SDS011;5956;51.428;6.682;2023-03-03T10:15:28;53.73;;;31.87;;
11797;SDS011;5956;51.428;6.682;2023-03-03T10:17:58;59.77;;;34.20;;
11797;SDS011;5956;51.428;6.682;2023-03-03T10:20:32;60.37;;;37.03;;
11797;SDS011;5956;51.428;6.682;2023-03-03T10:23:02;64.13;;;38.90;;
11797;SDS011;5956;51.428;6.682;2023-03-03T10:25:38;61.00;;;34.93;;
11797;SDS011;5956;51.428;6.682;2023-03-03T10:28:14;58.03;;;34.57;;
11797;SDS011;5956;51.428;6.682;2023-03-03T10:30:45;57.33;;;33.27;;
11797;SDS011;5956;51.428;6.682;2023-03-03T10:33:19;49.83;;;29.17;;
11797;SDS011;5956;51.428;6.682;2023-03-03T10:35:54;55.53;;;31.73;;
11797;SDS011;5956;51.428;6.682;2023-03-03T10:38:28;50.70;;;29.83;;
11797;SDS011;5956;51.428;6.682;2023-03-03T10:41:10;53.93;;;31.10;;
11797;SDS011;5956;51.428;6.682;2023-03-03T10:43:47;63.63;;;36.70;;
11797;SDS011;5956;51.428;6.682;2023-03-03T10:46:23;61.53;;;34.03;;
11797;SDS011;5956;51.428;6.682;2023-03-03T10:48:54;52.70;;;30.87;;
11797;SDS011;5956;51.428;6.682;2023-03-03T10:51:25;48.33;;;28.50;;
11797;SDS011;5956;51.428;6.682;2023-03-03T10:53:57;57.30;;;31.73;;
11797;SDS011;5956;51.428;6.682;2023-03-03T10:56:28;61.23;;;32.37;;
11797;SDS011;5956;51.428;6.682;2023-03-03T10:59:01;52.93;;;29.50;;
11797;SDS011;5956;51.428;6.682;2023-03-03T11:01:33;50.60;;;29.77;;
11797;SDS011;5956;51.428;6.682;2023-03-03T11:04:07;51.37;;;29.97;;
11797;SDS011;5956;51.428;6.682;2023-03-03T11:06:37;55.23;;;32.00;;
11797;SDS011;5956;51.428;6.682;2023-03-03T11:09:09;52.87;;;30.27;;
11797;SDS011;5956;51.428;6.682;2023-03-03T11:11:40;50.53;;;30.20;;
11797;SDS011;5956;51.428;6.682;2023-03-03T11:14:10;51.97;;;30.63;;
11797;SDS011;5956;51.428;6.682;2023-03-03T11:16:43;45.43;;;28.70;;
11797;SDS011;5956;51.428;6.682;2023-03-03T11:19:20;46.40;;;29.90;;
11797;SDS011;5956;51.428;6.682;2023-03-03T11:21:50;58.27;;;34.63;;
11797;SDS011;5956;51.428;6.682;2023-03-03T11:32:07;50.77;;;30.63;;
11797;SDS011;5956;51.428;6.682;2023-03-03T11:34:47;47.00;;;29.10;;
11797;SDS011;5956;51.428;6.682;2023-03-03T11:37:19;49.97;;;31.93;;
11797;SDS011;5956;51.428;6.682;2023-03-03T11:39:47;52.30;;;32.70;;
11797;SDS011;5956;51.428;6.682;2023-03-03T11:42:17;45.77;;;28.27;;
11797;SDS011;5956;51.428;6.682;2023-03-03T11:44:47;51.67;;;32.70;;
11797;SDS011;5956;51.428;6.682;2023-03-03T11:47:17;49.63;;;31.87;;
11797;SDS011;5956;51.428;6.682;2023-03-03T11:49:46;50.00;;;30.43;;
11797;SDS011;5956;51.428;6.682;2023-03-03T11:52:19;54.67;;;30.60;;
11797;SDS011;5956;51.428;6.682;2023-03-03T11:54:48;52.80;;;31.30;;
11797;SDS011;5956;51.428;6.682;2023-03-03T11:57:18;63.77;;;37.17;;
11797;SDS011;5956;51.428;6.682;2023-03-03T11:59:47;55.03;;;33.10;;
11797;SDS011;5956;51.428;6.682;2023-03-03T12:04:59;51.63;;;32.97;;
11797;SDS011;5956;51.428;6.682;2023-03-03T12:07:30;48.63;;;31.47;;
11797;SDS011;5956;51.428;6.682;2023-03-03T12:10:02;53.17;;;33.27;;
11797;SDS011;5956;51.428;6.682;2023-03-03T12:12:31;53.80;;;35.97;;
11797;SDS011;5956;51.428;6.682;2023-03-03T12:15:03;57.07;;;36.93;;
11797;SDS011;5956;51.428;6.682;2023-03-03T12:17:37;55.50;;;38.47;;
11797;SDS011;5956;51.428;6.682;2023-03-03T12:20:11;45.90;;;29.27;;
11797;SDS011;5956;51.428;6.682;2023-03-03T12:22:41;45.73;;;29.80;;
11797;SDS011;5956;51.428;6.682;2023-03-03T12:25:17;47.03;;;28.17;;
11797;SDS011;5956;51.428;6.682;2023-03-03T12:27:48;46.03;;;31.40;;
11797;SDS011;5956;51.428;6.682;2023-03-03T12:30:18;47.40;;;31.67;;
11797;SDS011;5956;51.428;6.682;2023-03-03T12:32:50;48.13;;;32.10;;
11797;SDS011;5956;51.428;6.682;2023-03-03T12:35:26;51.50;;;34.27;;
11797;SDS011;5956;51.428;6.682;2023-03-03T12:37:56;47.07;;;31.33;;
11797;SDS011;5956;51.428;6.682;2023-03-03T12:40:28;44.63;;;31.93;;
11797;SDS011;5956;51.428;6.682;2023-03-03T12:43:00;42.50;;;29.30;;
11797;SDS011;5956;51.428;6.682;2023-03-03T12:45:34;42.90;;;28.63;;
11797;SDS011;5956;51.428;6.682;2023-03-03T12:48:05;41.43;;;28.37;;
11797;SDS011;5956;51.428;6.682;2023-03-03T12:50:37;40.30;;;27.73;;
11797;SDS011;5956;51.428;6.682;2023-03-03T12:53:10;42.23;;;28.83;;
11797;SDS011;5956;51.428;6.682;2023-03-03T12:55:42;39.93;;;28.53;;
11797;SDS011;5956;51.428;6.682;2023-03-03T12:58:11;46.20;;;31.97;;
11797;SDS011;5956;51.428;6.682;2023-03-03T13:00:43;42.10;;;32.43;;
11797;SDS011;5956;51.428;6.682;2023-03-03T13:03:13;40.80;;;30.57;;
11797;SDS011;5956;51.428;6.682;2023-03-03T13:05:49;39.90;;;27.40;;
11797;SDS011;5956;51.428;6.682;2023-03-03T13:08:20;39.03;;;28.87;;
11797;SDS011;5956;51.428;6.682;2023-03-03T13:10:56;47.33;;;33.07;;
11797;SDS011;5956;51.428;6.682;2023-03-03T13:13:25;40.77;;;30.63;;
11797;SDS011;5956;51.428;6.682;2023-03-03T13:15:56;39.17;;;29.50;;
11797;SDS011;5956;51.428;6.682;2023-03-03T13:18:26;38.03;;;28.93;;
11797;SDS011;5956;51.428;6.682;2023-03-03T13:20:57;38.40;;;27.43;;
11797;SDS011;5956;51.428;6.682;2023-03-03T13:23:30;33.70;;;26.43;;
11797;SDS011;5956;51.428;6.682;2023-03-03T13:26:03;31.63;;;22.80;;
11797;SDS011;5956;51.428;6.682;2023-03-03T13:28:33;33.30;;;25.20;;
11797;SDS011;5956;51.428;6.682;2023-03-03T13:31:04;31.93;;;25.63;;
11797;SDS011;5956;51.428;6.682;2023-03-03T13:33:33;31.90;;;25.90;;
11797;SDS011;5956;51.428;6.682;2023-03-03T13:36:01;33.17;;;25.53;;
11797;SDS011;5956;51.428;6.682;2023-03-03T13:38:29;31.03;;;23.53;;
11797;SDS011;5956;51.428;6.682;2023-03-03T13:40:59;31.33;;;25.03;;
11797;SDS011;5956;51.428;6.682;2023-03-03T13:43:28;28.40;;;23.03;;
11797;SDS011;5956;51.428;6.682;2023-03-03T13:45:58;32.67;;;23.73;;
11797;SDS011;5956;51.428;6.682;2023-03-03T13:48:36;31.47;;;24.33;;
11797;SDS011;5956;51.428;6.682;2023-03-03T13:51:07;30.33;;;24.03;;
11797;SDS011;5956;51.428;6.682;2023-03-03T13:53:41;32.63;;;25.03;;
11797;SDS011;5956;51.428;6.682;2023-03-03T13:56:14;33.93;;;24.03;;
11797;SDS011;5956;51.428;6.682;2023-03-03T13:58:44;28.37;;;23.30;;
11797;SDS011;5956;51.428;6.682;2023-03-03T14:01:15;32.03;;;25.93;;
11797;SDS011;5956;51.428;6.682;2023-03-03T14:03:46;32.17;;;24.23;;
11797;SDS011;5956;51.428;6.682;2023-03-03T14:06:20;32.07;;;25.57;;
11797;SDS011;5956;51.428;6.682;2023-03-03T14:08:58;32.33;;;25.10;;
11797;SDS011;5956;51.428;6.682;2023-03-03T14:11:28;29.10;;;23.70;;
11797;SDS011;5956;51.428;6.682;2023-03-03T14:13:58;29.70;;;24.03;;
11797;SDS011;5956;51.428;6.682;2023-03-03T14:16:33;28.70;;;24.30;;
11797;SDS011;5956;51.428;6.682;2023-03-03T14:19:04;30.90;;;24.17;;
11797;SDS011;5956;51.428;6.682;2023-03-03T14:21:37;27.97;;;23.03;;
11797;SDS011;5956;51.428;6.682;2023-03-03T14:24:06;28.90;;;23.63;;
11797;SDS011;5956;51.428;6.682;2023-03-03T14:26:44;30.07;;;23.90;;
11797;SDS011;5956;51.428;6.682;2023-03-03T14:29:15;28.50;;;22.77;;
11797;SDS011;5956;51.428;6.682;2023-03-03T14:31:45;31.67;;;24.23;;
11797;SDS011;5956;51.428;6.682;2023-03-03T14:34:24;26.43;;;22.43;;
11797;SDS011;5956;51.428;6.682;2023-03-03T14:36:58;27.83;;;23.30;;
11797;SDS011;5956;51.428;6.682;2023-03-03T14:39:28;24.90;;;21.33;;
11797;SDS011;5956;51.428;6.682;2023-03-03T14:41:56;25.33;;;20.80;;
11797;SDS011;5956;51.428;6.682;2023-03-03T14:44:25;28.63;;;22.93;;
11797;SDS011;5956;51.428;6.682;2023-03-03T14:54:29;27.40;;;21.43;;
11797;SDS011;5956;51.428;6.682;2023-03-03T14:57:00;22.83;;;18.60;;
11797;SDS011;5956;51.428;6.682;2023-03-03T14:59:27;21.97;;;18.50;;
11797;SDS011;5956;51.428;6.682;2023-03-03T15:02:02;20.47;;;16.63;;
11797;SDS011;5956;51.428;6.682;2023-03-03T15:04:34;19.80;;;16.13;;
11797;SDS011;5956;51.428;6.682;2023-03-03T15:07:00;22.17;;;16.63;;
11797;SDS011;5956;51.428;6.682;2023-03-03T15:09:40;22.90;;;16.80;;
11797;SDS011;5956;51.428;6.682;2023-03-03T15:12:16;21.87;;;16.07;;
11797;SDS011;5956;51.428;6.682;2023-03-03T15:14:45;16.77;;;13.33;;
11797;SDS011;5956;51.428;6.682;2023-03-03T15:17:16;19.20;;;14.57;;
11797;SDS011;5956;51.428;6.682;2023-03-03T15:19:46;21.47;;;15.17;;
11797;SDS011;5956;51.428;6.682;2023-03-03T15:22:17;20.60;;;14.10;;
11797;SDS011;5956;51.428;6.682;2023-03-03T15:24:48;20.53;;;15.37;;
11797;SDS011;5956;51.428;6.682;2023-03-03T15:27:20;17.37;;;13.30;;